Calingasta, Argentina
Current Conditions -  °F | °C
As of 3:00 AM on Sunday 21 Dec 2014 (Local Time) from SAME Reporting Station
Clear Clear  
Wind Chill: 15°   Ceiling: Unl
Heat Index: 15°   Visibility: 6mi
Dew Point:   Wind: 0mph
Humidity: 45%   Direction: NA
Pressure: 29.88"   Gusts: NA
Location:  31.32°S, 69.42°W
Report Text: SAME 210600Z 00000KT CAVOK 15/03 Q1012
Loading
Personal Weather Stations






























Interactive Weather Map New forecast layout! Learn more

10-Day Weather Forecast

Advertisements
Track Severe Weather on mobile